الصفحة الرئيسية
METAR-TAF:

METAR-TAF

مطار :

مطار جومو كينياتا

نيروبي, كينيا

دائرة عرض: 01-19S, خط طول: 036-55E, ارتفاع: 1624 متر

مراقبة الطقس الحالي

تاريخ ووقت الإصدار 40 دقيقة قبل الساعة 13:00UTC
ريح 13 عقدة من الشرق/الشمال الشرقي
درجة الحرارة 25°درجة مئوية
الرطوبة 50%
ضغط 1016 hPa
الرؤية 10 كم أو أكثر
غيوم متفرقة على ارتفاع 2400 قدم

METAR: HKJK 171300Z 06013KT 9999 SCT024 25/14 Q1016 NOSIG

زمن: 16:40 (13:40 UTC)

توقعات

تاريخ ووقت الإصدار 2ساعات و 40 دقيقة قبل الساعة 11:00UTC
التوقعات صالحة من17 الساعة 12 UTC إلى 18 الساعة 18 UTC
ريح 10 عقدة من الشرق/الشمال الشرقي
الرؤية 10 كم أو أكثر
غيوم مفككة على ارتفاع 2500 قدم
أصبح
من 17 الساعة 20 UTC إلى 17 الساعة 23 UTC
ريح 5 عقدة من الشمال/الشمال الشرقي
غيوم متفرقة على ارتفاع 800 قدم
غيوم مفككة على ارتفاع 1600 قدم
أصبح
من 18 الساعة 08 UTC إلى 18 الساعة 11 UTC
ريح 10 عقدة من الشرق/الشمال الشرقي
غيوم مفككة على ارتفاع 2500 قدم

TAF: HKJK 171100Z 1712/1818 06010KT 9999 BKN025 BECMG 1720/1723 03005KT SCT008 BKN016 BECMG 1808/1811 06010KT BKN025

أرصاد الطقس والتوقعات من أكثر من 4000 مطار (تقارير الطقس للمطار METAR والتنبؤ بالطقس بالمطارTAF).

المحطات المتاحة هي النقط الصفراء والحمراء على الخريطة.

حرك المؤشر فوق النقطة لمعرفة اسم المحطة.

ثم انقر لمعرفة أرصاد وتوقعات الطقس.

لتغيير الخارطة: اضغط على الأزرار الخضراء مع رمز الصليب الأسود للتكبير. على الزر الأخضر مع شرطة للتصغير، أو على الأسهم الخضراء للخرائط المجاورة.


METAR-TAF: